SWR21R LOWG-LSZH
Flight info
| Callsign | SWR21R |
|---|---|
| Flight time | N/A |
| Altitude | 30000 |
| Route | ABIRI DCT ERKIR L608 KPT L856 NEGRA |
| Aircraft | A20N/M-SDE2E3FGHIJ1RWXY/LB1 |
Departure
| Time | 2026-04-21 18:15 |
|---|---|
| Airport | Graz Airport (LOWG) |
Arrival
| Time | N/A |
|---|---|
| Airport | Zürich Airport (LSZH) |
| Time | Latitude | Longitude | Altitude | Speed | Heading |
|---|---|---|---|---|---|
| 2026-04-21 17:51 | 46.99587 | 15.44324 | 1085 ft | 0 kts | 127° |
| 2026-04-21 18:05 | 46.99599 | 15.44300 | 1104 ft | 4 kts | 120° |
| 2026-04-21 18:05 | 46.99610 | 15.44264 | 1106 ft | 4 kts | 110° |
| 2026-04-21 18:05 | 46.99621 | 15.44229 | 1107 ft | 4 kts | 138° |
| 2026-04-21 18:06 | 46.99628 | 15.44221 | 1108 ft | 0 kts | 169° |
| 2026-04-21 18:09 | 46.99626 | 15.44222 | 1113 ft | 2 kts | 169° |
| 2026-04-21 18:10 | 46.99588 | 15.44229 | 1110 ft | 9 kts | 171° |
| 2026-04-21 18:10 | 46.99509 | 15.44259 | 1108 ft | 14 kts | 165° |
| 2026-04-21 18:10 | 46.99414 | 15.44223 | 1105 ft | 16 kts | 223° |
| 2026-04-21 18:10 | 46.99342 | 15.44094 | 1110 ft | 14 kts | 240° |
| 2026-04-21 18:11 | 46.99261 | 15.43989 | 1108 ft | 17 kts | 214° |
| 2026-04-21 18:11 | 46.99142 | 15.43950 | 1103 ft | 20 kts | 169° |
| 2026-04-21 18:11 | 46.98999 | 15.43989 | 1099 ft | 20 kts | 175° |
| 2026-04-21 18:11 | 46.98852 | 15.44035 | 1101 ft | 23 kts | 166° |
| 2026-04-21 18:12 | 46.98690 | 15.44086 | 1100 ft | 24 kts | 167° |
| 2026-04-21 18:12 | 46.98517 | 15.44142 | 1100 ft | 27 kts | 176° |
| 2026-04-21 18:12 | 46.98332 | 15.44199 | 1096 ft | 28 kts | 165° |
| 2026-04-21 18:12 | 46.98133 | 15.44253 | 1094 ft | 30 kts | 172° |
| 2026-04-21 18:13 | 46.97965 | 15.44293 | 1092 ft | 21 kts | 170° |
| 2026-04-21 18:13 | 46.97847 | 15.44351 | 1092 ft | 15 kts | 152° |
| 2026-04-21 18:13 | 46.97819 | 15.44337 | 1092 ft | 1 kts | 290° |
| 2026-04-21 18:13 | 46.97845 | 15.44312 | 1092 ft | 10 kts | 337° |
| 2026-04-21 18:14 | 46.98049 | 15.44251 | 1093 ft | 65 kts | 348° |
| 2026-04-21 18:14 | 46.98693 | 15.44074 | 1101 ft | 122 kts | 349° |
| 2026-04-21 18:14 | 46.99666 | 15.43777 | 1224 ft | 156 kts | 347° |
| 2026-04-21 18:15 | 47.00756 | 15.43368 | 1595 ft | 169 kts | 353° |
| 2026-04-21 18:15 | 47.01881 | 15.43026 | 2435 ft | 157 kts | 353° |
| 2026-04-21 18:15 | 47.02920 | 15.42766 | 3209 ft | 152 kts | 355° |
| 2026-04-21 18:15 | 47.04012 | 15.42900 | 3567 ft | 166 kts | 17° |
| 2026-04-21 18:16 | 47.05074 | 15.43751 | 3918 ft | 187 kts | 41° |
| 2026-04-21 18:16 | 47.05778 | 15.45492 | 4271 ft | 216 kts | 75° |
| 2026-04-21 18:16 | 47.05685 | 15.47824 | 4796 ft | 249 kts | 105° |
| 2026-04-21 18:16 | 47.04694 | 15.50057 | 5313 ft | 276 kts | 136° |
| 2026-04-21 18:17 | 47.02995 | 15.51360 | 6417 ft | 281 kts | 165° |
| 2026-04-21 18:17 | 47.01034 | 15.51422 | 7421 ft | 286 kts | 193° |
| 2026-04-21 18:17 | 46.99242 | 15.50206 | 8443 ft | 286 kts | 220° |
| 2026-04-21 18:17 | 46.97776 | 15.48229 | 9473 ft | 288 kts | 226° |
| 2026-04-21 18:18 | 46.96261 | 15.46286 | 10466 ft | 293 kts | 220° |
| 2026-04-21 18:18 | 46.94525 | 15.44508 | 10917 ft | 316 kts | 218° |
| 2026-04-21 18:18 | 46.92916 | 15.42208 | 11309 ft | 333 kts | 238° |
| 2026-04-21 18:18 | 46.91887 | 15.39161 | 12083 ft | 336 kts | 249° |
| 2026-04-21 18:19 | 46.90963 | 15.36022 | 13065 ft | 337 kts | 249° |
| 2026-04-21 18:19 | 46.90035 | 15.32863 | 14012 ft | 339 kts | 249° |
| 2026-04-21 18:19 | 46.89098 | 15.29681 | 14787 ft | 343 kts | 249° |
| 2026-04-21 18:19 | 46.88137 | 15.26461 | 15547 ft | 348 kts | 248° |
| 2026-04-21 18:20 | 46.86984 | 15.23374 | 16275 ft | 354 kts | 242° |
| 2026-04-21 18:20 | 46.85712 | 15.20224 | 17065 ft | 357 kts | 242° |
| 2026-04-21 18:20 | 46.84875 | 15.18144 | 17546 ft | 360 kts | 242° |
| 2026-04-21 18:20 | 46.83602 | 15.14982 | 18340 ft | 363 kts | 242° |
| 2026-04-21 18:21 | 46.82318 | 15.11788 | 19017 ft | 366 kts | 242° |
| 2026-04-21 18:21 | 46.81025 | 15.08572 | 19693 ft | 369 kts | 242° |
| 2026-04-21 18:21 | 46.79721 | 15.05333 | 20317 ft | 373 kts | 242° |
| 2026-04-21 18:21 | 46.78404 | 15.02051 | 20973 ft | 376 kts | 244° |
| 2026-04-21 18:22 | 46.77466 | 14.98524 | 21641 ft | 374 kts | 260° |
| 2026-04-21 18:22 | 46.77266 | 14.94760 | 22266 ft | 373 kts | 276° |
| 2026-04-21 18:22 | 46.77820 | 14.91075 | 22919 ft | 374 kts | 291° |
| 2026-04-21 18:22 | 46.78813 | 14.87498 | 23581 ft | 377 kts | 292° |
| 2026-04-21 18:23 | 46.79797 | 14.83994 | 24129 ft | 379 kts | 292° |
| 2026-04-21 18:23 | 46.80794 | 14.80432 | 24698 ft | 380 kts | 292° |
| 2026-04-21 18:23 | 46.81795 | 14.76836 | 25177 ft | 384 kts | 292° |
| 2026-04-21 18:23 | 46.82799 | 14.73215 | 25715 ft | 385 kts | 292° |
| 2026-04-21 18:24 | 46.83802 | 14.69582 | 26222 ft | 387 kts | 292° |
| 2026-04-21 18:24 | 46.84808 | 14.65931 | 26711 ft | 389 kts | 292° |
| 2026-04-21 18:24 | 46.85819 | 14.62258 | 27242 ft | 390 kts | 292° |
| 2026-04-21 18:24 | 46.86830 | 14.58574 | 27763 ft | 392 kts | 292° |
| 2026-04-21 18:25 | 46.87853 | 14.54842 | 28094 ft | 398 kts | 292° |
| 2026-04-21 18:25 | 46.88882 | 14.51081 | 28569 ft | 399 kts | 292° |
| 2026-04-21 18:25 | 46.89917 | 14.47295 | 28977 ft | 402 kts | 292° |
| 2026-04-21 18:25 | 46.90943 | 14.43534 | 29398 ft | 404 kts | 292° |
| 2026-04-21 18:26 | 46.91990 | 14.39689 | 29677 ft | 409 kts | 292° |
| 2026-04-21 18:26 | 46.93043 | 14.35815 | 30030 ft | 410 kts | 292° |
| 2026-04-21 18:26 | 46.94097 | 14.31937 | 30104 ft | 410 kts | 292° |
| 2026-04-21 18:27 | 46.96200 | 14.24173 | 30108 ft | 410 kts | 292° |
| 2026-04-21 18:27 | 46.98303 | 14.16386 | 30113 ft | 411 kts | 291° |
| 2026-04-21 18:28 | 47.00398 | 14.08599 | 30114 ft | 411 kts | 291° |
| 2026-04-21 18:28 | 47.02484 | 14.00818 | 30125 ft | 410 kts | 291° |
| 2026-04-21 18:29 | 47.04563 | 13.93042 | 30128 ft | 410 kts | 291° |
| 2026-04-21 18:29 | 47.06637 | 13.85260 | 30127 ft | 410 kts | 291° |
| 2026-04-21 18:30 | 47.08706 | 13.77473 | 30140 ft | 410 kts | 291° |
| 2026-04-21 18:30 | 47.10768 | 13.69681 | 30123 ft | 409 kts | 291° |
| 2026-04-21 18:31 | 47.12818 | 13.61910 | 30139 ft | 409 kts | 291° |
| 2026-04-21 18:31 | 47.14867 | 13.54121 | 30134 ft | 409 kts | 291° |
| 2026-04-21 18:32 | 47.16909 | 13.46333 | 30140 ft | 408 kts | 291° |
| 2026-04-21 18:32 | 47.18943 | 13.38544 | 30147 ft | 408 kts | 291° |
| 2026-04-21 18:33 | 47.20973 | 13.30742 | 30144 ft | 410 kts | 291° |
| 2026-04-21 18:33 | 47.23008 | 13.22897 | 30154 ft | 410 kts | 291° |
| 2026-04-21 18:34 | 47.25035 | 13.15059 | 30160 ft | 409 kts | 291° |
| 2026-04-21 18:34 | 47.27066 | 13.07176 | 30166 ft | 415 kts | 291° |
| 2026-04-21 18:35 | 47.28760 | 13.00577 | 30148 ft | 414 kts | 291° |
| 2026-04-21 18:35 | 47.31130 | 12.91317 | 30156 ft | 412 kts | 291° |
| 2026-04-21 18:36 | 47.33145 | 12.83415 | 30159 ft | 413 kts | 291° |
| 2026-04-21 18:36 | 47.35159 | 12.75498 | 30164 ft | 413 kts | 291° |
| 2026-04-21 18:37 | 47.37167 | 12.67569 | 30161 ft | 412 kts | 291° |
| 2026-04-21 18:37 | 47.39172 | 12.59626 | 30156 ft | 413 kts | 291° |
| 2026-04-21 18:38 | 47.41163 | 12.51687 | 30161 ft | 411 kts | 291° |
| 2026-04-21 18:38 | 47.43135 | 12.43810 | 30163 ft | 412 kts | 291° |
| 2026-04-21 18:39 | 47.45132 | 12.35822 | 30166 ft | 412 kts | 291° |
| 2026-04-21 18:39 | 47.47111 | 12.27876 | 30162 ft | 412 kts | 291° |
| 2026-04-21 18:40 | 47.49072 | 12.19978 | 30161 ft | 412 kts | 291° |
| 2026-04-21 18:40 | 47.50722 | 12.13308 | 30164 ft | 413 kts | 291° |
| 2026-04-21 18:41 | 47.53003 | 12.04060 | 30153 ft | 411 kts | 291° |
| 2026-04-21 18:41 | 47.54485 | 11.95840 | 30154 ft | 414 kts | 283° |
| 2026-04-21 18:42 | 47.55646 | 11.87531 | 30153 ft | 413 kts | 283° |
| 2026-04-21 18:42 | 47.56823 | 11.79193 | 30152 ft | 414 kts | 283° |
| 2026-04-21 18:43 | 47.57987 | 11.70873 | 30151 ft | 412 kts | 283° |
| 2026-04-21 18:43 | 47.59138 | 11.62541 | 30154 ft | 413 kts | 283° |
| 2026-04-21 18:44 | 47.60282 | 11.54210 | 30145 ft | 412 kts | 283° |
| 2026-04-21 18:44 | 47.61422 | 11.45871 | 30150 ft | 413 kts | 283° |
| 2026-04-21 18:45 | 47.62549 | 11.37525 | 30125 ft | 413 kts | 283° |
| 2026-04-21 18:45 | 47.63557 | 11.29202 | 30144 ft | 410 kts | 282° |
| 2026-04-21 18:46 | 47.64552 | 11.20859 | 30145 ft | 411 kts | 282° |
| 2026-04-21 18:46 | 47.65552 | 11.12522 | 30140 ft | 411 kts | 282° |
| 2026-04-21 18:47 | 47.66561 | 11.04087 | 30138 ft | 411 kts | 282° |
| 2026-04-21 18:47 | 47.67542 | 10.95839 | 30134 ft | 410 kts | 282° |
| 2026-04-21 18:48 | 47.68522 | 10.87530 | 30000 ft | 406 kts | 282° |
| 2026-04-21 18:48 | 47.69006 | 10.83415 | 29474 ft | 404 kts | 282° |
| 2026-04-21 18:48 | 47.69486 | 10.79316 | 28814 ft | 402 kts | 282° |
| 2026-04-21 18:48 | 47.69963 | 10.75242 | 28124 ft | 399 kts | 282° |
| 2026-04-21 18:49 | 47.70434 | 10.71200 | 27430 ft | 396 kts | 282° |
| 2026-04-21 18:49 | 47.70900 | 10.67184 | 26760 ft | 393 kts | 282° |
| 2026-04-21 18:49 | 47.71206 | 10.64543 | 26325 ft | 392 kts | 282° |
| 2026-04-21 18:49 | 47.71819 | 10.59236 | 25453 ft | 388 kts | 282° |
| 2026-04-21 18:50 | 47.72273 | 10.55289 | 24816 ft | 386 kts | 282° |
| 2026-04-21 18:50 | 47.72720 | 10.51384 | 24239 ft | 383 kts | 281° |
| 2026-04-21 18:50 | 47.73164 | 10.47491 | 23589 ft | 381 kts | 281° |
| 2026-04-21 18:50 | 47.73604 | 10.43628 | 22923 ft | 378 kts | 281° |
| 2026-04-21 18:51 | 47.74040 | 10.39790 | 22278 ft | 375 kts | 281° |
| 2026-04-21 18:51 | 47.74425 | 10.35974 | 21633 ft | 373 kts | 277° |
| 2026-04-21 18:51 | 47.74530 | 10.32131 | 20998 ft | 372 kts | 270° |
| 2026-04-21 18:51 | 47.74432 | 10.28305 | 20426 ft | 368 kts | 270° |
| 2026-04-21 18:52 | 47.74344 | 10.24528 | 20202 ft | 365 kts | 270° |
| 2026-04-21 18:52 | 47.74261 | 10.20734 | 20147 ft | 369 kts | 270° |
| 2026-04-21 18:52 | 47.74177 | 10.16920 | 20146 ft | 369 kts | 270° |
| 2026-04-21 18:52 | 47.74091 | 10.13109 | 20134 ft | 369 kts | 270° |
| 2026-04-21 18:53 | 47.74001 | 10.09301 | 20140 ft | 369 kts | 270° |
| 2026-04-21 18:53 | 47.73909 | 10.05500 | 20148 ft | 369 kts | 270° |
| 2026-04-21 18:53 | 47.73816 | 10.01687 | 20140 ft | 369 kts | 270° |
| 2026-04-21 18:53 | 47.73723 | 9.97888 | 20135 ft | 368 kts | 270° |
| 2026-04-21 18:54 | 47.73630 | 9.94099 | 19859 ft | 366 kts | 270° |
| 2026-04-21 18:54 | 47.73536 | 9.90327 | 19386 ft | 364 kts | 270° |
| 2026-04-21 18:54 | 47.73441 | 9.86583 | 18848 ft | 362 kts | 270° |
| 2026-04-21 18:54 | 47.73345 | 9.82854 | 18230 ft | 360 kts | 270° |
| 2026-04-21 18:55 | 47.73281 | 9.80402 | 17834 ft | 358 kts | 270° |
| 2026-04-21 18:55 | 47.73153 | 9.75542 | 17065 ft | 353 kts | 269° |
| 2026-04-21 18:55 | 47.73056 | 9.71916 | 16518 ft | 349 kts | 270° |
| 2026-04-21 18:55 | 47.72959 | 9.68315 | 15865 ft | 349 kts | 269° |
| 2026-04-21 18:56 | 47.72862 | 9.64746 | 15337 ft | 345 kts | 269° |
| 2026-04-21 18:56 | 47.72764 | 9.61173 | 14728 ft | 345 kts | 269° |
| 2026-04-21 18:56 | 47.72663 | 9.57653 | 14320 ft | 338 kts | 269° |
| 2026-04-21 18:56 | 47.72563 | 9.54162 | 13714 ft | 338 kts | 269° |
| 2026-04-21 18:57 | 47.72462 | 9.50702 | 13130 ft | 335 kts | 269° |
| 2026-04-21 18:57 | 47.72362 | 9.47258 | 12527 ft | 334 kts | 269° |
| 2026-04-21 18:57 | 47.72018 | 9.43867 | 12000 ft | 333 kts | 255° |
| 2026-04-21 18:57 | 47.71074 | 9.40728 | 11447 ft | 334 kts | 239° |
| 2026-04-21 18:58 | 47.69649 | 9.38027 | 11200 ft | 333 kts | 232° |
| 2026-04-21 18:58 | 47.68167 | 9.35357 | 11147 ft | 336 kts | 233° |
| 2026-04-21 18:58 | 47.66692 | 9.32665 | 11138 ft | 336 kts | 233° |
| 2026-04-21 18:58 | 47.65216 | 9.29971 | 11137 ft | 336 kts | 233° |
| 2026-04-21 18:59 | 47.63742 | 9.27286 | 11134 ft | 336 kts | 233° |
| 2026-04-21 18:59 | 47.62273 | 9.24618 | 11139 ft | 331 kts | 233° |
| 2026-04-21 18:59 | 47.60823 | 9.21979 | 11141 ft | 332 kts | 234° |
| 2026-04-21 18:59 | 47.59611 | 9.19083 | 11141 ft | 331 kts | 246° |
| 2026-04-21 19:00 | 47.58875 | 9.15872 | 11142 ft | 328 kts | 260° |
| 2026-04-21 19:00 | 47.58475 | 9.12574 | 11142 ft | 326 kts | 261° |
| 2026-04-21 19:00 | 47.58074 | 9.09273 | 11144 ft | 325 kts | 262° |
| 2026-04-21 19:00 | 47.57867 | 9.05962 | 11143 ft | 324 kts | 276° |
| 2026-04-21 19:01 | 47.58454 | 9.02765 | 11139 ft | 323 kts | 297° |
| 2026-04-21 19:01 | 47.59786 | 9.00143 | 11140 ft | 313 kts | 314° |
| 2026-04-21 19:01 | 47.61279 | 8.97917 | 11138 ft | 297 kts | 314° |
| 2026-04-21 19:01 | 47.62461 | 8.95325 | 11145 ft | 320 kts | 292° |
| 2026-04-21 19:02 | 47.62909 | 8.92058 | 11147 ft | 328 kts | 274° |
| 2026-04-21 19:02 | 47.63004 | 8.88698 | 11145 ft | 323 kts | 274° |
| 2026-04-21 19:02 | 47.63101 | 8.85346 | 11141 ft | 329 kts | 273° |
| 2026-04-21 19:02 | 47.63199 | 8.81970 | 11134 ft | 325 kts | 274° |
| 2026-04-21 19:03 | 47.63294 | 8.78629 | 11140 ft | 327 kts | 274° |
| 2026-04-21 19:03 | 47.63393 | 8.75247 | 11137 ft | 326 kts | 273° |
| 2026-04-21 19:03 | 47.63480 | 8.71960 | 11135 ft | 324 kts | 273° |
| 2026-04-21 19:03 | 47.63496 | 8.68539 | 11132 ft | 331 kts | 263° |
| 2026-04-21 19:04 | 47.62801 | 8.65371 | 11136 ft | 330 kts | 242° |
| 2026-04-21 19:04 | 47.61305 | 8.62768 | 11137 ft | 335 kts | 220° |
| 2026-04-21 19:04 | 47.59271 | 8.61225 | 11132 ft | 329 kts | 197° |
| 2026-04-21 19:04 | 47.56936 | 8.60961 | 11132 ft | 347 kts | 174° |
| 2026-04-21 19:05 | 47.54644 | 8.62016 | 11125 ft | 341 kts | 152° |
| 2026-04-21 19:05 | 47.52766 | 8.63947 | 11018 ft | 319 kts | 143° |
| 2026-04-21 19:05 | 47.51051 | 8.65871 | 10849 ft | 300 kts | 143° |
| 2026-04-21 19:05 | 47.49438 | 8.67680 | 10692 ft | 282 kts | 143° |
| 2026-04-21 19:06 | 47.47916 | 8.69382 | 10475 ft | 268 kts | 143° |
| 2026-04-21 19:06 | 47.46447 | 8.71027 | 10210 ft | 260 kts | 144° |
| 2026-04-21 19:06 | 47.45014 | 8.72649 | 9711 ft | 259 kts | 143° |
| 2026-04-21 19:06 | 47.44048 | 8.73748 | 9329 ft | 260 kts | 143° |
| 2026-04-21 19:07 | 47.42617 | 8.75341 | 8943 ft | 253 kts | 143° |
| 2026-04-21 19:07 | 47.41218 | 8.76872 | 8491 ft | 250 kts | 143° |
| 2026-04-21 19:07 | 47.39812 | 8.78399 | 8009 ft | 249 kts | 146° |
| 2026-04-21 19:07 | 47.38320 | 8.79645 | 7587 ft | 245 kts | 153° |
| 2026-04-21 19:08 | 47.36806 | 8.80744 | 7237 ft | 239 kts | 153° |
| 2026-04-21 19:08 | 47.35292 | 8.81829 | 7145 ft | 245 kts | 153° |
| 2026-04-21 19:08 | 47.33773 | 8.82918 | 7015 ft | 240 kts | 153° |
| 2026-04-21 19:08 | 47.32292 | 8.83972 | 6668 ft | 240 kts | 153° |
| 2026-04-21 19:09 | 47.30767 | 8.84946 | 6378 ft | 239 kts | 164° |
| 2026-04-21 19:09 | 47.29119 | 8.84921 | 6080 ft | 239 kts | 197° |
| 2026-04-21 19:09 | 47.27706 | 8.83590 | 6000 ft | 251 kts | 228° |
| 2026-04-21 19:09 | 47.26811 | 8.81395 | 5996 ft | 250 kts | 243° |
| 2026-04-21 19:10 | 47.26047 | 8.79089 | 5988 ft | 249 kts | 243° |
| 2026-04-21 19:10 | 47.25288 | 8.76805 | 5997 ft | 248 kts | 243° |
| 2026-04-21 19:10 | 47.24683 | 8.74447 | 5819 ft | 246 kts | 263° |
| 2026-04-21 19:10 | 47.24890 | 8.72022 | 5652 ft | 236 kts | 296° |
| 2026-04-21 19:11 | 47.25804 | 8.70096 | 5480 ft | 226 kts | 313° |
| 2026-04-21 19:11 | 47.26792 | 8.68380 | 5352 ft | 213 kts | 314° |
| 2026-04-21 19:11 | 47.27729 | 8.66754 | 5182 ft | 204 kts | 320° |
| 2026-04-21 19:11 | 47.28918 | 8.65866 | 5021 ft | 191 kts | 350° |
| 2026-04-21 19:12 | 47.30219 | 8.65372 | 5164 ft | 191 kts | 350° |
| 2026-04-21 19:12 | 47.31529 | 8.64820 | 5378 ft | 201 kts | 340° |
| 2026-04-21 19:12 | 47.32780 | 8.63930 | 5132 ft | 199 kts | 340° |
| 2026-04-21 19:12 | 47.34128 | 8.63001 | 4207 ft | 230 kts | 338° |
| 2026-04-21 19:13 | 47.35550 | 8.61879 | 3847 ft | 228 kts | 336° |
| 2026-04-21 19:13 | 47.36891 | 8.60767 | 3359 ft | 212 kts | 335° |
| 2026-04-21 19:13 | 47.38140 | 8.59781 | 2941 ft | 194 kts | 344° |
| 2026-04-21 19:13 | 47.39346 | 8.58971 | 2610 ft | 188 kts | 342° |
| 2026-04-21 19:14 | 47.40543 | 8.58311 | 2345 ft | 185 kts | 345° |
| 2026-04-21 19:14 | 47.41742 | 8.57610 | 2125 ft | 186 kts | 332° |
| 2026-04-21 19:14 | 47.42869 | 8.56749 | 2072 ft | 177 kts | 336° |
| 2026-04-21 19:14 | 47.44002 | 8.55912 | 2298 ft | 185 kts | 331° |
| 2026-04-21 19:15 | 47.45047 | 8.54771 | 2609 ft | 194 kts | 321° |
| 2026-04-21 19:15 | 47.46155 | 8.53468 | 3026 ft | 209 kts | 328° |
| 2026-04-21 19:15 | 47.47321 | 8.52195 | 3887 ft | 209 kts | 323° |
| 2026-04-21 19:15 | 47.48419 | 8.50794 | 4698 ft | 209 kts | 324° |
| 2026-04-21 19:16 | 47.49530 | 8.49360 | 5398 ft | 214 kts | 323° |
| 2026-04-21 19:16 | 47.50675 | 8.47897 | 6061 ft | 221 kts | 324° |
| 2026-04-21 19:16 | 47.51882 | 8.46353 | 6351 ft | 245 kts | 324° |
| 2026-04-21 19:16 | 47.53341 | 8.44541 | 6021 ft | 294 kts | 323° |
| 2026-04-21 19:17 | 47.56329 | 8.40755 | 5991 ft | 269 kts | 314° |
| 2026-04-21 19:17 | 47.57171 | 8.38383 | 5999 ft | 257 kts | 284° |
| 2026-04-21 19:17 | 47.57319 | 8.35825 | 5998 ft | 243 kts | 272° |